sensor_id;sensor_type;location;lat;lon;timestamp;P1;durP1;ratioP1;P2;durP2;ratioP2
37791;SDS011;29527;55.766;37.570;2022-11-18T00:01:27;8.77;;;2.92;;
37791;SDS011;29527;55.766;37.570;2022-11-18T00:03:53;11.77;;;4.65;;
37791;SDS011;29527;55.766;37.570;2022-11-18T00:06:22;7.38;;;3.90;;
37791;SDS011;29527;55.766;37.570;2022-11-18T00:08:49;5.28;;;2.30;;
37791;SDS011;29527;55.766;37.570;2022-11-18T00:11:17;7.03;;;3.72;;
37791;SDS011;29527;55.766;37.570;2022-11-18T00:14:03;6.28;;;2.75;;
37791;SDS011;29527;55.766;37.570;2022-11-18T00:16:46;9.32;;;4.57;;
37791;SDS011;29527;55.766;37.570;2022-11-18T00:19:16;6.25;;;2.58;;
37791;SDS011;29527;55.766;37.570;2022-11-18T00:21:43;4.82;;;2.63;;
37791;SDS011;29527;55.766;37.570;2022-11-18T00:24:08;7.28;;;4.30;;
37791;SDS011;29527;55.766;37.570;2022-11-18T00:26:34;7.20;;;4.55;;
37791;SDS011;29527;55.766;37.570;2022-11-18T00:29:00;7.18;;;3.92;;
37791;SDS011;29527;55.766;37.570;2022-11-18T00:31:25;9.13;;;4.55;;
37791;SDS011;29527;55.766;37.570;2022-11-18T00:33:51;9.13;;;4.22;;
37791;SDS011;29527;55.766;37.570;2022-11-18T00:36:16;6.10;;;3.05;;
37791;SDS011;29527;55.766;37.570;2022-11-18T00:38:42;8.32;;;4.38;;
37791;SDS011;29527;55.766;37.570;2022-11-18T00:41:08;4.63;;;2.90;;
37791;SDS011;29527;55.766;37.570;2022-11-18T00:43:35;6.88;;;4.00;;
37791;SDS011;29527;55.766;37.570;2022-11-18T00:46:02;8.85;;;4.30;;
37791;SDS011;29527;55.766;37.570;2022-11-18T00:48:28;5.53;;;2.13;;
37791;SDS011;29527;55.766;37.570;2022-11-18T00:50:54;8.05;;;3.80;;
37791;SDS011;29527;55.766;37.570;2022-11-18T00:53:22;8.10;;;4.63;;
37791;SDS011;29527;55.766;37.570;2022-11-18T00:55:51;8.13;;;4.15;;
37791;SDS011;29527;55.766;37.570;2022-11-18T00:58:17;10.65;;;4.20;;
37791;SDS011;29527;55.766;37.570;2022-11-18T01:00:44;3.70;;;2.30;;
37791;SDS011;29527;55.766;37.570;2022-11-18T01:03:12;8.95;;;4.93;;
37791;SDS011;29527;55.766;37.570;2022-11-18T01:05:39;7.50;;;3.85;;
37791;SDS011;29527;55.766;37.570;2022-11-18T01:08:05;7.70;;;4.40;;
37791;SDS011;29527;55.766;37.570;2022-11-18T01:10:32;7.75;;;4.72;;
37791;SDS011;29527;55.766;37.570;2022-11-18T01:12:58;4.28;;;1.80;;
37791;SDS011;29527;55.766;37.570;2022-11-18T01:15:42;7.32;;;3.90;;
37791;SDS011;29527;55.766;37.570;2022-11-18T01:18:09;7.05;;;3.88;;
37791;SDS011;29527;55.766;37.570;2022-11-18T01:20:35;8.15;;;4.50;;
37791;SDS011;29527;55.766;37.570;2022-11-18T01:23:01;7.55;;;4.30;;
37791;SDS011;29527;55.766;37.570;2022-11-18T01:25:27;8.70;;;4.03;;
37791;SDS011;29527;55.766;37.570;2022-11-18T01:27:53;6.72;;;4.07;;
37791;SDS011;29527;55.766;37.570;2022-11-18T01:30:19;9.07;;;4.20;;
37791;SDS011;29527;55.766;37.570;2022-11-18T01:32:45;7.95;;;4.53;;
37791;SDS011;29527;55.766;37.570;2022-11-18T01:35:10;7.18;;;4.43;;
37791;SDS011;29527;55.766;37.570;2022-11-18T01:37:36;7.85;;;4.47;;
37791;SDS011;29527;55.766;37.570;2022-11-18T01:40:03;8.32;;;4.53;;
37791;SDS011;29527;55.766;37.570;2022-11-18T01:42:30;6.25;;;3.28;;
37791;SDS011;29527;55.766;37.570;2022-11-18T01:47:24;9.38;;;4.00;;
37791;SDS011;29527;55.766;37.570;2022-11-18T01:49:52;6.90;;;3.85;;
37791;SDS011;29527;55.766;37.570;2022-11-18T01:52:17;6.90;;;3.85;;
37791;SDS011;29527;55.766;37.570;2022-11-18T01:54:45;8.60;;;4.00;;
37791;SDS011;29527;55.766;37.570;2022-11-18T01:57:17;5.47;;;3.60;;
37791;SDS011;29527;55.766;37.570;2022-11-18T01:59:45;6.85;;;4.20;;
37791;SDS011;29527;55.766;37.570;2022-11-18T02:02:14;7.65;;;3.97;;
37791;SDS011;29527;55.766;37.570;2022-11-18T02:04:41;3.70;;;2.40;;
37791;SDS011;29527;55.766;37.570;2022-11-18T02:07:08;7.03;;;3.97;;
37791;SDS011;29527;55.766;37.570;2022-11-18T02:09:35;5.53;;;3.42;;
37791;SDS011;29527;55.766;37.570;2022-11-18T02:12:02;7.32;;;4.15;;
37791;SDS011;29527;55.766;37.570;2022-11-18T02:14:29;7.25;;;4.45;;
37791;SDS011;29527;55.766;37.570;2022-11-18T02:28:25;7.35;;;3.95;;
37791;SDS011;29527;55.766;37.570;2022-11-18T02:36:01;8.27;;;3.67;;
37791;SDS011;29527;55.766;37.570;2022-11-18T02:38:36;6.43;;;4.20;;
37791;SDS011;29527;55.766;37.570;2022-11-18T02:41:11;6.93;;;3.40;;
37791;SDS011;29527;55.766;37.570;2022-11-18T02:44:01;7.18;;;3.88;;
37791;SDS011;29527;55.766;37.570;2022-11-18T02:46:34;6.30;;;4.10;;
37791;SDS011;29527;55.766;37.570;2022-11-18T02:49:06;9.90;;;4.85;;
37791;SDS011;29527;55.766;37.570;2022-11-18T02:51:36;9.98;;;4.40;;
37791;SDS011;29527;55.766;37.570;2022-11-18T02:54:04;10.05;;;4.15;;
37791;SDS011;29527;55.766;37.570;2022-11-18T02:56:32;7.10;;;4.07;;
37791;SDS011;29527;55.766;37.570;2022-11-18T02:59:00;7.03;;;3.90;;
37791;SDS011;29527;55.766;37.570;2022-11-18T03:01:27;5.40;;;2.88;;
37791;SDS011;29527;55.766;37.570;2022-11-18T03:03:55;9.00;;;4.28;;
37791;SDS011;29527;55.766;37.570;2022-11-18T03:06:31;7.68;;;3.83;;
37791;SDS011;29527;55.766;37.570;2022-11-18T03:11:33;7.40;;;3.90;;
37791;SDS011;29527;55.766;37.570;2022-11-18T03:14:23;4.95;;;2.78;;
37791;SDS011;29527;55.766;37.570;2022-11-18T03:16:59;6.68;;;3.97;;
37791;SDS011;29527;55.766;37.570;2022-11-18T03:20:28;5.07;;;2.28;;
37791;SDS011;29527;55.766;37.570;2022-11-18T03:25:37;6.38;;;4.05;;
37791;SDS011;29527;55.766;37.570;2022-11-18T03:33:55;4.53;;;2.78;;
37791;SDS011;29527;55.766;37.570;2022-11-18T03:36:25;7.22;;;3.80;;
37791;SDS011;29527;55.766;37.570;2022-11-18T03:38:54;7.63;;;4.15;;
37791;SDS011;29527;55.766;37.570;2022-11-18T03:41:23;6.85;;;4.57;;
37791;SDS011;29527;55.766;37.570;2022-11-18T03:43:56;7.65;;;3.85;;
37791;SDS011;29527;55.766;37.570;2022-11-18T03:46:30;6.13;;;3.30;;
37791;SDS011;29527;55.766;37.570;2022-11-18T03:49:02;4.07;;;2.70;;
37791;SDS011;29527;55.766;37.570;2022-11-18T03:51:32;5.68;;;3.58;;
37791;SDS011;29527;55.766;37.570;2022-11-18T03:54:05;6.93;;;4.15;;
37791;SDS011;29527;55.766;37.570;2022-11-18T03:56:38;6.30;;;3.97;;
37791;SDS011;29527;55.766;37.570;2022-11-18T04:02:10;5.57;;;2.67;;
37791;SDS011;29527;55.766;37.570;2022-11-18T04:04:39;6.70;;;4.43;;
37791;SDS011;29527;55.766;37.570;2022-11-18T04:07:09;7.80;;;4.22;;
37791;SDS011;29527;55.766;37.570;2022-11-18T04:10:14;3.67;;;1.77;;
37791;SDS011;29527;55.766;37.570;2022-11-18T04:13:04;7.03;;;3.58;;
37791;SDS011;29527;55.766;37.570;2022-11-18T04:15:31;6.40;;;3.78;;
37791;SDS011;29527;55.766;37.570;2022-11-18T04:17:57;8.70;;;2.85;;
37791;SDS011;29527;55.766;37.570;2022-11-18T04:20:23;7.45;;;4.30;;
37791;SDS011;29527;55.766;37.570;2022-11-18T04:22:50;5.40;;;2.55;;
37791;SDS011;29527;55.766;37.570;2022-11-18T04:25:16;6.40;;;4.10;;
37791;SDS011;29527;55.766;37.570;2022-11-18T04:27:41;7.60;;;3.90;;
37791;SDS011;29527;55.766;37.570;2022-11-18T04:30:07;7.55;;;3.83;;
37791;SDS011;29527;55.766;37.570;2022-11-18T04:32:33;7.25;;;3.92;;
37791;SDS011;29527;55.766;37.570;2022-11-18T04:34:59;6.47;;;4.03;;
37791;SDS011;29527;55.766;37.570;2022-11-18T04:37:24;5.85;;;2.83;;
37791;SDS011;29527;55.766;37.570;2022-11-18T04:39:50;6.22;;;3.33;;
37791;SDS011;29527;55.766;37.570;2022-11-18T04:42:15;7.40;;;4.03;;
37791;SDS011;29527;55.766;37.570;2022-11-18T04:44:41;10.25;;;3.90;;
37791;SDS011;29527;55.766;37.570;2022-11-18T04:47:06;5.57;;;3.47;;
37791;SDS011;29527;55.766;37.570;2022-11-18T04:49:32;9.43;;;3.88;;
37791;SDS011;29527;55.766;37.570;2022-11-18T04:51:59;4.35;;;2.47;;
37791;SDS011;29527;55.766;37.570;2022-11-18T04:54:25;5.20;;;2.70;;
37791;SDS011;29527;55.766;37.570;2022-11-18T04:56:52;6.90;;;3.88;;
37791;SDS011;29527;55.766;37.570;2022-11-18T04:59:19;5.13;;;3.03;;
37791;SDS011;29527;55.766;37.570;2022-11-18T05:01:47;5.68;;;3.00;;
37791;SDS011;29527;55.766;37.570;2022-11-18T05:04:14;8.45;;;3.80;;
37791;SDS011;29527;55.766;37.570;2022-11-18T05:06:41;8.38;;;4.05;;
37791;SDS011;29527;55.766;37.570;2022-11-18T05:09:07;7.93;;;4.43;;
37791;SDS011;29527;55.766;37.570;2022-11-18T05:11:32;6.07;;;3.70;;
37791;SDS011;29527;55.766;37.570;2022-11-18T05:14:16;7.05;;;3.70;;
37791;SDS011;29527;55.766;37.570;2022-11-18T05:16:42;7.82;;;3.83;;
37791;SDS011;29527;55.766;37.570;2022-11-18T05:19:08;6.35;;;3.80;;
37791;SDS011;29527;55.766;37.570;2022-11-18T05:21:34;7.60;;;4.13;;
37791;SDS011;29527;55.766;37.570;2022-11-18T05:24:00;7.72;;;4.22;;
37791;SDS011;29527;55.766;37.570;2022-11-18T05:26:26;7.43;;;4.00;;
37791;SDS011;29527;55.766;37.570;2022-11-18T05:28:52;6.90;;;4.30;;
37791;SDS011;29527;55.766;37.570;2022-11-18T05:31:18;6.63;;;4.30;;
37791;SDS011;29527;55.766;37.570;2022-11-18T05:33:43;4.95;;;2.83;;
37791;SDS011;29527;55.766;37.570;2022-11-18T05:36:10;5.90;;;3.33;;
37791;SDS011;29527;55.766;37.570;2022-11-18T05:38:41;7.75;;;3.70;;
37791;SDS011;29527;55.766;37.570;2022-11-18T05:41:07;7.47;;;3.83;;
37791;SDS011;29527;55.766;37.570;2022-11-18T05:43:33;5.68;;;3.03;;
37791;SDS011;29527;55.766;37.570;2022-11-18T05:46:00;7.20;;;4.13;;
37791;SDS011;29527;55.766;37.570;2022-11-18T05:48:25;6.78;;;3.80;;
37791;SDS011;29527;55.766;37.570;2022-11-18T05:50:52;7.90;;;4.30;;
37791;SDS011;29527;55.766;37.570;2022-11-18T05:53:20;5.95;;;3.58;;
37791;SDS011;29527;55.766;37.570;2022-11-18T05:56:08;8.35;;;4.82;;
37791;SDS011;29527;55.766;37.570;2022-11-18T05:58:41;7.60;;;3.08;;
37791;SDS011;29527;55.766;37.570;2022-11-18T06:01:06;6.90;;;4.15;;
37791;SDS011;29527;55.766;37.570;2022-11-18T06:03:34;7.35;;;3.65;;
37791;SDS011;29527;55.766;37.570;2022-11-18T06:06:06;9.25;;;4.55;;
37791;SDS011;29527;55.766;37.570;2022-11-18T06:08:44;9.10;;;4.47;;
37791;SDS011;29527;55.766;37.570;2022-11-18T06:11:14;6.28;;;3.95;;
37791;SDS011;29527;55.766;37.570;2022-11-18T06:13:47;8.13;;;4.30;;
37791;SDS011;29527;55.766;37.570;2022-11-18T06:16:24;6.35;;;3.70;;
37791;SDS011;29527;55.766;37.570;2022-11-18T06:18:52;6.28;;;4.10;;
37791;SDS011;29527;55.766;37.570;2022-11-18T06:21:18;5.47;;;2.95;;
37791;SDS011;29527;55.766;37.570;2022-11-18T06:23:44;11.25;;;4.60;;
37791;SDS011;29527;55.766;37.570;2022-11-18T06:26:11;5.50;;;3.13;;
37791;SDS011;29527;55.766;37.570;2022-11-18T06:28:38;7.85;;;4.40;;
37791;SDS011;29527;55.766;37.570;2022-11-18T06:31:04;9.60;;;4.57;;
37791;SDS011;29527;55.766;37.570;2022-11-18T06:33:30;7.47;;;4.63;;
37791;SDS011;29527;55.766;37.570;2022-11-18T06:35:55;7.68;;;4.43;;
37791;SDS011;29527;55.766;37.570;2022-11-18T06:38:23;7.65;;;4.60;;
37791;SDS011;29527;55.766;37.570;2022-11-18T06:40:49;6.32;;;4.53;;
37791;SDS011;29527;55.766;37.570;2022-11-18T06:43:15;6.28;;;4.00;;
37791;SDS011;29527;55.766;37.570;2022-11-18T06:46:00;9.23;;;4.00;;
37791;SDS011;29527;55.766;37.570;2022-11-18T06:51:10;6.10;;;3.13;;
37791;SDS011;29527;55.766;37.570;2022-11-18T06:53:35;4.05;;;1.92;;
37791;SDS011;29527;55.766;37.570;2022-11-18T06:56:05;9.23;;;4.65;;
37791;SDS011;29527;55.766;37.570;2022-11-18T06:58:32;8.13;;;4.32;;
37791;SDS011;29527;55.766;37.570;2022-11-18T07:01:07;8.38;;;4.38;;
37791;SDS011;29527;55.766;37.570;2022-11-18T07:03:35;8.18;;;4.90;;
37791;SDS011;29527;55.766;37.570;2022-11-18T07:06:00;8.45;;;4.18;;
37791;SDS011;29527;55.766;37.570;2022-11-18T07:08:25;8.98;;;4.25;;
37791;SDS011;29527;55.766;37.570;2022-11-18T07:10:51;10.27;;;4.85;;
37791;SDS011;29527;55.766;37.570;2022-11-18T07:13:17;6.38;;;2.97;;
37791;SDS011;29527;55.766;37.570;2022-11-18T07:15:43;8.48;;;4.75;;
37791;SDS011;29527;55.766;37.570;2022-11-18T07:18:08;9.32;;;5.00;;
37791;SDS011;29527;55.766;37.570;2022-11-18T07:20:34;11.45;;;4.38;;
37791;SDS011;29527;55.766;37.570;2022-11-18T07:22:59;7.97;;;4.70;;
37791;SDS011;29527;55.766;37.570;2022-11-18T07:25:25;7.80;;;4.50;;
37791;SDS011;29527;55.766;37.570;2022-11-18T07:27:50;7.90;;;4.32;;
37791;SDS011;29527;55.766;37.570;2022-11-18T07:30:16;8.20;;;5.22;;
37791;SDS011;29527;55.766;37.570;2022-11-18T07:32:41;11.23;;;4.50;;
37791;SDS011;29527;55.766;37.570;2022-11-18T07:35:07;6.57;;;3.97;;
37791;SDS011;29527;55.766;37.570;2022-11-18T07:37:33;6.18;;;2.70;;
37791;SDS011;29527;55.766;37.570;2022-11-18T07:39:58;7.80;;;4.57;;
37791;SDS011;29527;55.766;37.570;2022-11-18T07:42:26;10.27;;;4.40;;
37791;SDS011;29527;55.766;37.570;2022-11-18T07:44:52;7.32;;;4.05;;
37791;SDS011;29527;55.766;37.570;2022-11-18T07:47:17;4.95;;;2.67;;
37791;SDS011;29527;55.766;37.570;2022-11-18T07:49:43;7.30;;;4.35;;
37791;SDS011;29527;55.766;37.570;2022-11-18T07:52:08;9.98;;;5.43;;
37791;SDS011;29527;55.766;37.570;2022-11-18T07:54:34;9.02;;;4.90;;
37791;SDS011;29527;55.766;37.570;2022-11-18T07:56:59;9.38;;;4.78;;
37791;SDS011;29527;55.766;37.570;2022-11-18T07:59:24;9.43;;;5.10;;
37791;SDS011;29527;55.766;37.570;2022-11-18T08:01:50;10.40;;;4.70;;
37791;SDS011;29527;55.766;37.570;2022-11-18T08:04:15;8.90;;;4.43;;
37791;SDS011;29527;55.766;37.570;2022-11-18T08:06:42;5.55;;;3.55;;
37791;SDS011;29527;55.766;37.570;2022-11-18T08:09:07;4.68;;;2.47;;
37791;SDS011;29527;55.766;37.570;2022-11-18T08:11:33;8.02;;;4.47;;
37791;SDS011;29527;55.766;37.570;2022-11-18T08:13:58;10.82;;;5.40;;
37791;SDS011;29527;55.766;37.570;2022-11-18T08:16:24;10.73;;;4.60;;
37791;SDS011;29527;55.766;37.570;2022-11-18T08:18:50;8.70;;;4.47;;
37791;SDS011;29527;55.766;37.570;2022-11-18T08:21:17;10.75;;;5.50;;
37791;SDS011;29527;55.766;37.570;2022-11-18T08:23:51;6.63;;;4.47;;
37791;SDS011;29527;55.766;37.570;2022-11-18T08:26:18;9.82;;;5.35;;
37791;SDS011;29527;55.766;37.570;2022-11-18T08:28:44;6.05;;;3.00;;
37791;SDS011;29527;55.766;37.570;2022-11-18T08:31:14;7.90;;;4.90;;
37791;SDS011;29527;55.766;37.570;2022-11-18T08:33:41;9.65;;;4.75;;
37791;SDS011;29527;55.766;37.570;2022-11-18T08:36:12;14.13;;;4.93;;
37791;SDS011;29527;55.766;37.570;2022-11-18T08:38:40;9.40;;;5.80;;
37791;SDS011;29527;55.766;37.570;2022-11-18T08:41:05;10.60;;;5.88;;
37791;SDS011;29527;55.766;37.570;2022-11-18T08:43:33;10.90;;;5.03;;
37791;SDS011;29527;55.766;37.570;2022-11-18T08:45:59;10.15;;;4.72;;
37791;SDS011;29527;55.766;37.570;2022-11-18T08:48:25;8.63;;;5.28;;
37791;SDS011;29527;55.766;37.570;2022-11-18T08:50:50;9.77;;;5.80;;
37791;SDS011;29527;55.766;37.570;2022-11-18T08:53:16;10.45;;;5.55;;
37791;SDS011;29527;55.766;37.570;2022-11-18T08:55:43;10.05;;;5.50;;
37791;SDS011;29527;55.766;37.570;2022-11-18T08:58:08;9.10;;;5.60;;
37791;SDS011;29527;55.766;37.570;2022-11-18T09:00:34;10.43;;;5.30;;
37791;SDS011;29527;55.766;37.570;2022-11-18T09:02:59;7.55;;;4.38;;
37791;SDS011;29527;55.766;37.570;2022-11-18T09:05:25;8.85;;;5.40;;
37791;SDS011;29527;55.766;37.570;2022-11-18T09:07:50;8.98;;;5.07;;
37791;SDS011;29527;55.766;37.570;2022-11-18T09:10:16;9.73;;;5.53;;
37791;SDS011;29527;55.766;37.570;2022-11-18T09:12:41;9.27;;;5.88;;
37791;SDS011;29527;55.766;37.570;2022-11-18T09:15:06;9.27;;;5.88;;
37791;SDS011;29527;55.766;37.570;2022-11-18T09:17:33;11.50;;;6.20;;
37791;SDS011;29527;55.766;37.570;2022-11-18T09:19:58;11.73;;;5.80;;
37791;SDS011;29527;55.766;37.570;2022-11-18T09:22:24;10.68;;;5.32;;
37791;SDS011;29527;55.766;37.570;2022-11-18T09:24:49;8.07;;;4.90;;
37791;SDS011;29527;55.766;37.570;2022-11-18T09:27:14;8.68;;;4.30;;
37791;SDS011;29527;55.766;37.570;2022-11-18T09:29:40;7.10;;;4.50;;
37791;SDS011;29527;55.766;37.570;2022-11-18T09:32:05;8.80;;;5.75;;
37791;SDS011;29527;55.766;37.570;2022-11-18T09:34:32;9.18;;;6.00;;
37791;SDS011;29527;55.766;37.570;2022-11-18T09:36:58;6.70;;;4.43;;
37791;SDS011;29527;55.766;37.570;2022-11-18T09:39:24;9.30;;;5.55;;
37791;SDS011;29527;55.766;37.570;2022-11-18T09:49:53;11.35;;;6.35;;
37791;SDS011;29527;55.766;37.570;2022-11-18T09:52:22;10.25;;;5.55;;
37791;SDS011;29527;55.766;37.570;2022-11-18T09:54:51;10.07;;;5.82;;
37791;SDS011;29527;55.766;37.570;2022-11-18T09:57:18;8.80;;;5.43;;
37791;SDS011;29527;55.766;37.570;2022-11-18T09:59:46;8.55;;;5.68;;
37791;SDS011;29527;55.766;37.570;2022-11-18T10:04:37;10.27;;;5.22;;
37791;SDS011;29527;55.766;37.570;2022-11-18T10:07:05;13.13;;;6.57;;
37791;SDS011;29527;55.766;37.570;2022-11-18T10:09:40;8.70;;;5.22;;
37791;SDS011;29527;55.766;37.570;2022-11-18T10:17:53;10.52;;;6.05;;
37791;SDS011;29527;55.766;37.570;2022-11-18T10:22:57;9.30;;;4.60;;
37791;SDS011;29527;55.766;37.570;2022-11-18T10:25:36;10.18;;;6.15;;
37791;SDS011;29527;55.766;37.570;2022-11-18T10:28:16;5.78;;;3.10;;
37791;SDS011;29527;55.766;37.570;2022-11-18T10:31:08;9.52;;;5.38;;
37791;SDS011;29527;55.766;37.570;2022-11-18T10:33:36;10.65;;;5.75;;
37791;SDS011;29527;55.766;37.570;2022-11-18T10:39:04;9.02;;;5.40;;
37791;SDS011;29527;55.766;37.570;2022-11-18T10:41:38;10.10;;;5.88;;
37791;SDS011;29527;55.766;37.570;2022-11-18T10:44:24;10.18;;;5.45;;
37791;SDS011;29527;55.766;37.570;2022-11-18T10:46:52;10.45;;;5.70;;
37791;SDS011;29527;55.766;37.570;2022-11-18T10:49:17;9.07;;;5.43;;
37791;SDS011;29527;55.766;37.570;2022-11-18T10:51:46;10.02;;;5.22;;
37791;SDS011;29527;55.766;37.570;2022-11-18T10:54:28;7.85;;;5.00;;
37791;SDS011;29527;55.766;37.570;2022-11-18T10:56:58;8.65;;;5.30;;
37791;SDS011;29527;55.766;37.570;2022-11-18T11:04:50;11.50;;;6.20;;
37791;SDS011;29527;55.766;37.570;2022-11-18T11:10:05;9.77;;;5.70;;
37791;SDS011;29527;55.766;37.570;2022-11-18T11:12:42;11.27;;;5.95;;
37791;SDS011;29527;55.766;37.570;2022-11-18T11:15:14;10.48;;;6.30;;
37791;SDS011;29527;55.766;37.570;2022-11-18T11:17:51;9.57;;;5.18;;
37791;SDS011;29527;55.766;37.570;2022-11-18T11:20:40;9.68;;;5.35;;
37791;SDS011;29527;55.766;37.570;2022-11-18T11:23:09;11.82;;;5.60;;
37791;SDS011;29527;55.766;37.570;2022-11-18T11:25:47;10.45;;;5.28;;
37791;SDS011;29527;55.766;37.570;2022-11-18T11:28:23;8.70;;;4.78;;
37791;SDS011;29527;55.766;37.570;2022-11-18T11:33:51;8.70;;;4.82;;
37791;SDS011;29527;55.766;37.570;2022-11-18T11:50:11;8.48;;;5.43;;
37791;SDS011;29527;55.766;37.570;2022-11-18T11:53:08;10.60;;;5.18;;
37791;SDS011;29527;55.766;37.570;2022-11-18T11:55:46;8.98;;;5.20;;
37791;SDS011;29527;55.766;37.570;2022-11-18T12:06:59;8.02;;;5.60;;
37791;SDS011;29527;55.766;37.570;2022-11-18T12:15:05;11.00;;;5.70;;
37791;SDS011;29527;55.766;37.570;2022-11-18T12:17:38;12.02;;;6.28;;
37791;SDS011;29527;55.766;37.570;2022-11-18T12:20:34;10.23;;;5.70;;
37791;SDS011;29527;55.766;37.570;2022-11-18T12:23:11;9.95;;;6.07;;
37791;SDS011;29527;55.766;37.570;2022-11-18T12:28:12;11.02;;;6.07;;
37791;SDS011;29527;55.766;37.570;2022-11-18T12:30:47;10.70;;;6.10;;
37791;SDS011;29527;55.766;37.570;2022-11-18T12:33:14;11.07;;;6.35;;
37791;SDS011;29527;55.766;37.570;2022-11-18T12:35:45;12.43;;;6.50;;
37791;SDS011;29527;55.766;37.570;2022-11-18T12:38:26;10.73;;;5.82;;
37791;SDS011;29527;55.766;37.570;2022-11-18T12:40:55;13.73;;;6.20;;
37791;SDS011;29527;55.766;37.570;2022-11-18T12:46:08;10.02;;;5.57;;
37791;SDS011;29527;55.766;37.570;2022-11-18T12:54:02;14.02;;;6.70;;
37791;SDS011;29527;55.766;37.570;2022-11-18T12:56:59;10.20;;;6.10;;
37791;SDS011;29527;55.766;37.570;2022-11-18T12:59:28;11.10;;;6.38;;
37791;SDS011;29527;55.766;37.570;2022-11-18T13:04:39;9.65;;;5.28;;
37791;SDS011;29527;55.766;37.570;2022-11-18T13:07:05;8.45;;;4.72;;
37791;SDS011;29527;55.766;37.570;2022-11-18T13:09:53;10.48;;;5.68;;
37791;SDS011;29527;55.766;37.570;2022-11-18T13:12:20;9.38;;;5.43;;
37791;SDS011;29527;55.766;37.570;2022-11-18T13:14:50;11.80;;;5.60;;
37791;SDS011;29527;55.766;37.570;2022-11-18T13:17:35;8.95;;;5.30;;
37791;SDS011;29527;55.766;37.570;2022-11-18T13:22:52;8.70;;;5.15;;
37791;SDS011;29527;55.766;37.570;2022-11-18T13:25:38;8.70;;;4.93;;
37791;SDS011;29527;55.766;37.570;2022-11-18T13:30:53;8.35;;;4.75;;
37791;SDS011;29527;55.766;37.570;2022-11-18T13:33:26;7.28;;;4.63;;
37791;SDS011;29527;55.766;37.570;2022-11-18T13:35:53;9.73;;;5.65;;
37791;SDS011;29527;55.766;37.570;2022-11-18T13:38:19;7.00;;;4.55;;
37791;SDS011;29527;55.766;37.570;2022-11-18T13:40:47;6.60;;;4.50;;
37791;SDS011;29527;55.766;37.570;2022-11-18T13:43:33;7.80;;;4.63;;
37791;SDS011;29527;55.766;37.570;2022-11-18T13:46:00;7.30;;;4.70;;
37791;SDS011;29527;55.766;37.570;2022-11-18T13:48:31;8.23;;;4.40;;
37791;SDS011;29527;55.766;37.570;2022-11-18T13:50:59;7.97;;;5.15;;
37791;SDS011;29527;55.766;37.570;2022-11-18T13:53:29;8.95;;;5.20;;
37791;SDS011;29527;55.766;37.570;2022-11-18T13:55:58;7.50;;;4.68;;
37791;SDS011;29527;55.766;37.570;2022-11-18T14:01:20;8.38;;;5.00;;
37791;SDS011;29527;55.766;37.570;2022-11-18T14:04:02;9.40;;;5.95;;
37791;SDS011;29527;55.766;37.570;2022-11-18T14:06:35;13.80;;;5.80;;
37791;SDS011;29527;55.766;37.570;2022-11-18T14:11:34;8.27;;;4.88;;
37791;SDS011;29527;55.766;37.570;2022-11-18T14:14:01;6.30;;;4.43;;
37791;SDS011;29527;55.766;37.570;2022-11-18T14:16:37;6.97;;;4.43;;
37791;SDS011;29527;55.766;37.570;2022-11-18T14:19:04;8.35;;;4.45;;
37791;SDS011;29527;55.766;37.570;2022-11-18T14:21:31;8.77;;;4.90;;
37791;SDS011;29527;55.766;37.570;2022-11-18T14:23:58;8.63;;;4.90;;
37791;SDS011;29527;55.766;37.570;2022-11-18T14:26:33;7.13;;;4.85;;
37791;SDS011;29527;55.766;37.570;2022-11-18T14:29:02;8.98;;;4.68;;
37791;SDS011;29527;55.766;37.570;2022-11-18T14:31:41;11.60;;;5.00;;
37791;SDS011;29527;55.766;37.570;2022-11-18T14:36:45;8.32;;;4.82;;
37791;SDS011;29527;55.766;37.570;2022-11-18T14:39:12;9.35;;;5.82;;
37791;SDS011;29527;55.766;37.570;2022-11-18T14:41:58;10.82;;;5.22;;
37791;SDS011;29527;55.766;37.570;2022-11-18T14:44:24;10.00;;;5.72;;
37791;SDS011;29527;55.766;37.570;2022-11-18T14:46:52;8.25;;;4.85;;
37791;SDS011;29527;55.766;37.570;2022-11-18T14:49:22;8.40;;;5.15;;
37791;SDS011;29527;55.766;37.570;2022-11-18T14:51:49;8.82;;;5.40;;
37791;SDS011;29527;55.766;37.570;2022-11-18T14:54:19;8.65;;;5.53;;
37791;SDS011;29527;55.766;37.570;2022-11-18T14:56:49;8.38;;;5.15;;
37791;SDS011;29527;55.766;37.570;2022-11-18T14:59:16;9.23;;;4.15;;
37791;SDS011;29527;55.766;37.570;2022-11-18T15:01:43;11.50;;;5.40;;
37791;SDS011;29527;55.766;37.570;2022-11-18T15:04:09;11.57;;;5.07;;
37791;SDS011;29527;55.766;37.570;2022-11-18T15:06:35;9.80;;;5.53;;
37791;SDS011;29527;55.766;37.570;2022-11-18T15:09:00;8.90;;;5.13;;
37791;SDS011;29527;55.766;37.570;2022-11-18T15:11:26;11.18;;;5.60;;
37791;SDS011;29527;55.766;37.570;2022-11-18T15:13:52;9.93;;;6.00;;
37791;SDS011;29527;55.766;37.570;2022-11-18T15:16:24;9.93;;;5.30;;
37791;SDS011;29527;55.766;37.570;2022-11-18T15:18:55;11.20;;;5.43;;
37791;SDS011;29527;55.766;37.570;2022-11-18T15:21:23;9.13;;;5.47;;
37791;SDS011;29527;55.766;37.570;2022-11-18T15:23:49;10.82;;;5.50;;
37791;SDS011;29527;55.766;37.570;2022-11-18T15:26:34;8.35;;;5.32;;
37791;SDS011;29527;55.766;37.570;2022-11-18T15:29:02;11.18;;;5.50;;
37791;SDS011;29527;55.766;37.570;2022-11-18T15:31:28;8.90;;;5.10;;
37791;SDS011;29527;55.766;37.570;2022-11-18T15:33:53;10.00;;;5.10;;
37791;SDS011;29527;55.766;37.570;2022-11-18T15:36:23;11.88;;;5.68;;
37791;SDS011;29527;55.766;37.570;2022-11-18T15:38:50;8.27;;;4.78;;
37791;SDS011;29527;55.766;37.570;2022-11-18T15:41:17;9.23;;;5.05;;
37791;SDS011;29527;55.766;37.570;2022-11-18T15:43:45;8.50;;;5.18;;
37791;SDS011;29527;55.766;37.570;2022-11-18T15:46:12;11.38;;;5.00;;
37791;SDS011;29527;55.766;37.570;2022-11-18T15:48:38;8.77;;;5.20;;
37791;SDS011;29527;55.766;37.570;2022-11-18T15:51:04;11.18;;;5.55;;
37791;SDS011;29527;55.766;37.570;2022-11-18T15:53:30;8.98;;;5.35;;
37791;SDS011;29527;55.766;37.570;2022-11-18T16:01:20;10.23;;;5.35;;
37791;SDS011;29527;55.766;37.570;2022-11-18T16:03:45;12.40;;;5.70;;
37791;SDS011;29527;55.766;37.570;2022-11-18T16:06:11;10.25;;;5.60;;
37791;SDS011;29527;55.766;37.570;2022-11-18T16:08:36;9.82;;;5.45;;
37791;SDS011;29527;55.766;37.570;2022-11-18T16:11:02;10.20;;;5.47;;
37791;SDS011;29527;55.766;37.570;2022-11-18T16:13:46;10.93;;;5.65;;
37791;SDS011;29527;55.766;37.570;2022-11-18T16:16:21;9.32;;;5.40;;
37791;SDS011;29527;55.766;37.570;2022-11-18T16:18:47;8.82;;;5.00;;
37791;SDS011;29527;55.766;37.570;2022-11-18T16:21:14;10.13;;;5.35;;
37791;SDS011;29527;55.766;37.570;2022-11-18T16:23:39;10.25;;;5.55;;
37791;SDS011;29527;55.766;37.570;2022-11-18T16:26:05;10.80;;;6.15;;
37791;SDS011;29527;55.766;37.570;2022-11-18T16:28:30;13.82;;;6.30;;
37791;SDS011;29527;55.766;37.570;2022-11-18T16:30:56;12.48;;;5.95;;
37791;SDS011;29527;55.766;37.570;2022-11-18T16:33:39;12.45;;;6.32;;
37791;SDS011;29527;55.766;37.570;2022-11-18T16:36:05;12.07;;;6.32;;
37791;SDS011;29527;55.766;37.570;2022-11-18T16:38:31;12.27;;;6.80;;
37791;SDS011;29527;55.766;37.570;2022-11-18T16:40:57;14.73;;;7.00;;
37791;SDS011;29527;55.766;37.570;2022-11-18T16:43:23;13.55;;;6.63;;
37791;SDS011;29527;55.766;37.570;2022-11-18T16:45:50;11.15;;;5.63;;
37791;SDS011;29527;55.766;37.570;2022-11-18T16:48:17;11.38;;;5.93;;
37791;SDS011;29527;55.766;37.570;2022-11-18T16:50:43;9.27;;;5.53;;
37791;SDS011;29527;55.766;37.570;2022-11-18T16:53:08;8.57;;;5.20;;